createdAt,value
2023-01-09T00:54:39.585Z,19.53
2023-01-09T03:32:39.183Z,19.92
2023-01-09T03:33:39.173Z,19.93
2023-01-09T03:35:39.157Z,19.92
2023-01-09T03:36:39.157Z,19.93
2023-01-09T03:37:39.142Z,19.92
2023-01-09T03:38:39.142Z,19.92
2023-01-09T03:39:39.153Z,19.92
2023-01-09T03:40:39.124Z,19.91
2023-01-09T03:41:39.115Z,19.91
2023-01-09T03:42:39.096Z,19.90
2023-01-09T03:43:39.091Z,19.90
2023-01-09T03:44:39.081Z,19.90
2023-01-09T03:45:39.203Z,19.90
2023-01-09T03:46:39.060Z,19.90
2023-01-09T03:47:39.056Z,19.90
2023-01-09T03:48:39.045Z,19.89
2023-01-09T03:49:39.043Z,19.90
2023-01-09T03:50:39.154Z,19.90
2023-01-09T03:51:39.026Z,19.91
2023-01-09T03:52:39.008Z,19.90
2023-01-09T03:53:38.997Z,19.91
2023-01-09T03:54:38.991Z,19.92
2023-01-09T03:55:38.990Z,19.92
2023-01-09T03:56:38.977Z,19.92
2023-01-09T03:57:38.975Z,19.91
2023-01-09T03:58:38.962Z,19.91
2023-01-09T03:59:38.952Z,19.91
2023-01-09T04:00:38.944Z,19.91
2023-01-09T04:01:39.103Z,19.91
2023-01-09T04:02:38.926Z,19.91
2023-01-09T04:03:38.948Z,19.91
2023-01-09T04:04:38.907Z,19.91
2023-01-09T04:05:38.899Z,19.92
2023-01-09T04:06:38.915Z,19.92
2023-01-09T04:07:38.881Z,19.91
2023-01-09T04:08:38.870Z,19.91
2023-01-09T04:09:38.876Z,19.90
2023-01-09T04:10:38.852Z,19.91
2023-01-09T04:11:38.860Z,19.91
2023-01-09T04:12:38.834Z,19.90
2023-01-09T04:13:38.827Z,19.88
2023-01-09T04:14:38.828Z,19.89
2023-01-09T04:15:38.809Z,19.89
2023-01-09T04:16:38.853Z,19.89
2023-01-09T04:17:38.791Z,19.90
2023-01-09T04:18:38.793Z,19.91
2023-01-09T04:19:38.812Z,19.93
2023-01-09T04:20:39.643Z,19.94
2023-01-09T04:21:38.766Z,19.95
2023-01-09T04:22:38.782Z,19.95
2023-01-09T04:23:38.739Z,19.94
2023-01-09T04:24:38.741Z,19.94
2023-01-09T04:25:38.726Z,19.94
2023-01-09T04:26:38.717Z,19.93
2023-01-09T04:27:38.717Z,19.93
2023-01-09T04:28:38.711Z,19.93
2023-01-09T04:29:38.688Z,19.93
2023-01-09T04:30:38.683Z,19.93
2023-01-09T04:31:38.749Z,19.93
2023-01-09T04:32:39.163Z,19.93
2023-01-09T04:33:38.656Z,19.94
2023-01-09T04:34:38.648Z,19.94
2023-01-09T04:35:38.638Z,19.95
2023-01-09T04:36:38.629Z,19.96
2023-01-09T04:37:38.626Z,19.97
2023-01-09T04:38:38.638Z,19.96
2023-01-09T04:39:38.607Z,19.96
2023-01-09T04:40:38.596Z,19.96
2023-01-09T04:41:38.589Z,19.97
2023-01-09T04:42:38.579Z,19.97
2023-01-09T04:43:38.579Z,19.97
2023-01-09T04:44:38.558Z,19.98
2023-01-09T04:45:38.614Z,19.99
2023-01-09T04:46:38.542Z,19.99
2023-01-09T04:47:38.580Z,20.00
2023-01-09T04:48:38.531Z,20.00
2023-01-09T04:49:38.519Z,20.00
2023-01-09T04:50:38.509Z,20.00
2023-01-09T04:51:38.500Z,20.00
2023-01-09T04:52:39.156Z,20.01
2023-01-09T04:53:38.484Z,20.02
2023-01-09T04:54:38.495Z,20.02
2023-01-09T04:55:38.520Z,20.02
2023-01-09T04:56:38.471Z,20.02
2023-01-09T04:57:38.445Z,20.03
2023-01-09T04:58:38.444Z,20.04
2023-01-09T04:59:38.428Z,20.04
2023-01-09T05:00:38.417Z,20.04
2023-01-09T05:01:38.524Z,20.04
2023-01-09T05:02:38.409Z,20.04
2023-01-09T05:03:38.398Z,20.04
2023-01-09T05:04:38.427Z,20.04
2023-01-09T05:05:38.375Z,20.05
2023-01-09T05:06:38.371Z,20.04
2023-01-09T05:07:38.387Z,20.05
2023-01-09T05:08:38.354Z,20.05
2023-01-09T05:09:38.345Z,20.05
2023-01-09T05:10:38.356Z,20.05
2023-01-09T05:11:38.325Z,20.06
2023-01-09T05:12:38.318Z,20.06
2023-01-09T05:13:38.309Z,20.07
2023-01-09T05:14:39.170Z,20.07
2023-01-09T05:15:38.291Z,20.08
2023-01-09T05:16:38.348Z,20.08
2023-01-09T05:17:38.280Z,20.09
2023-01-09T05:18:38.265Z,20.08
2023-01-09T05:19:38.258Z,20.08
2023-01-09T05:20:38.250Z,20.09
2023-01-09T05:21:38.243Z,20.08
2023-01-09T05:22:38.233Z,20.09
2023-01-09T05:23:38.228Z,20.09
2023-01-09T05:24:38.221Z,20.09
2023-01-09T05:25:38.204Z,20.09
2023-01-09T05:26:38.233Z,20.09
2023-01-09T05:27:38.194Z,20.10
2023-01-09T05:28:38.177Z,20.11
2023-01-09T05:29:38.175Z,20.11
2023-01-09T05:30:38.164Z,20.11
2023-01-09T05:31:38.215Z,20.11
2023-01-09T05:32:38.146Z,20.12
2023-01-09T05:33:38.134Z,20.12
2023-01-09T05:34:38.124Z,20.13
2023-01-09T05:35:38.122Z,20.13
2023-01-09T05:36:38.117Z,20.13
2023-01-09T05:37:38.109Z,20.12
2023-01-09T05:38:38.093Z,20.12
2023-01-09T05:39:38.085Z,20.13
2023-01-09T05:40:40.408Z,20.13
2023-01-09T05:41:38.069Z,20.12
2023-01-09T05:42:38.082Z,20.13
2023-01-09T05:43:38.054Z,20.13
2023-01-09T05:44:38.046Z,20.13
2023-01-09T05:45:38.078Z,20.13
2023-01-09T05:46:38.025Z,20.13
2023-01-09T05:47:38.013Z,20.14
2023-01-09T05:48:38.008Z,20.14
2023-01-09T05:49:37.996Z,20.14
2023-01-09T05:50:37.996Z,20.15
2023-01-09T05:51:38.021Z,20.14
2023-01-09T05:52:37.971Z,20.14
2023-01-09T05:53:37.974Z,20.14
2023-01-09T05:54:37.966Z,20.13
2023-01-09T05:55:37.951Z,20.12
2023-01-09T05:56:37.966Z,20.13
2023-01-09T05:57:37.926Z,20.13
2023-01-09T05:58:37.943Z,20.14
2023-01-09T05:59:37.913Z,20.14
2023-01-09T06:00:37.905Z,20.14
2023-01-09T06:01:37.888Z,20.15
2023-01-09T06:02:38.018Z,20.15
2023-01-09T06:03:37.906Z,20.15
2023-01-09T06:04:38.214Z,20.15
2023-01-09T06:05:37.857Z,20.15
2023-01-09T06:06:37.848Z,20.16
2023-01-09T06:07:37.841Z,20.16
2023-01-09T06:08:37.835Z,20.16
2023-01-09T06:09:37.822Z,20.16
2023-01-09T06:10:37.814Z,20.15
2023-01-09T06:11:37.801Z,20.16
2023-01-09T06:12:37.809Z,20.15
2023-01-09T06:13:37.787Z,20.15
2023-01-09T06:14:37.809Z,20.16
2023-01-09T06:15:37.809Z,20.16
2023-01-09T06:16:37.759Z,20.14
2023-01-09T06:17:37.751Z,20.14
2023-01-09T06:18:38.686Z,20.14
2023-01-09T06:19:37.741Z,20.14
2023-01-09T06:20:38.278Z,20.14
2023-01-09T06:21:37.713Z,20.15
2023-01-09T06:22:37.751Z,20.15
2023-01-09T06:23:37.700Z,20.17
2023-01-09T06:24:37.687Z,20.18
2023-01-09T06:25:37.684Z,20.19
2023-01-09T06:26:37.692Z,20.20
2023-01-09T06:27:37.677Z,20.21
2023-01-09T06:28:37.655Z,20.21
2023-01-09T06:29:37.697Z,20.22
2023-01-09T06:30:37.656Z,20.22
2023-01-09T06:31:37.623Z,20.23
2023-01-09T06:32:37.619Z,20.25
2023-01-09T06:34:37.690Z,20.26
2023-01-09T06:39:37.702Z,20.30
2023-01-09T06:44:37.695Z,20.33
2023-01-09T06:48:37.697Z,20.36
2023-01-09T06:53:37.701Z,20.40
2023-01-09T06:58:37.700Z,20.44
2023-01-09T07:03:37.860Z,20.43
2023-01-09T07:08:37.711Z,20.41
2023-01-09T07:17:37.716Z,20.41
2023-01-09T10:39:42.797Z,21.36
2023-01-09T10:59:50.828Z,21.47
2023-01-09T12:44:36.194Z,21.37
2023-01-09T13:09:34.361Z,21.56
2023-01-09T15:47:32.923Z,21.59
2023-01-09T15:50:32.593Z,21.56
2023-01-09T15:51:32.580Z,21.55
2023-01-09T15:52:32.880Z,21.55
2023-01-09T15:53:32.564Z,21.54
2023-01-09T15:54:32.568Z,21.54
2023-01-09T15:55:32.879Z,21.53
2023-01-09T15:57:32.531Z,21.52
2023-01-09T15:58:32.525Z,21.51
2023-01-09T15:59:32.511Z,21.50
2023-01-09T16:00:32.939Z,21.49
2023-01-09T16:01:32.501Z,21.47
2023-01-09T16:02:32.486Z,21.45
2023-01-09T16:03:32.474Z,21.43
2023-01-09T16:04:32.463Z,21.41
2023-01-09T16:05:32.487Z,21.40
2023-01-09T16:06:32.472Z,21.38
2023-01-09T16:07:32.440Z,21.36
2023-01-09T16:08:32.483Z,21.35
2023-01-09T16:09:32.423Z,21.34
2023-01-09T16:10:32.423Z,21.32
2023-01-09T16:11:32.405Z,21.32
2023-01-09T16:12:32.919Z,21.30
2023-01-09T16:13:32.386Z,21.31
2023-01-09T16:14:32.375Z,21.29
2023-01-09T16:15:32.375Z,21.28
2023-01-09T16:16:32.531Z,21.28
2023-01-09T16:17:32.350Z,21.27
2023-01-09T16:18:32.365Z,21.27
2023-01-09T16:19:32.350Z,21.27
2023-01-09T16:20:32.327Z,21.26
2023-01-09T16:21:32.404Z,21.25
2023-01-09T16:22:32.317Z,21.24
2023-01-09T16:23:32.300Z,21.23
2023-01-09T16:24:32.285Z,21.23
2023-01-09T16:25:32.303Z,21.22
2023-01-09T16:26:32.278Z,21.22
2023-01-09T16:27:32.263Z,21.21
2023-01-09T16:28:32.399Z,21.21
2023-01-09T16:29:32.240Z,21.21
2023-01-09T16:30:32.232Z,21.20
2023-01-09T16:31:32.242Z,21.20
2023-01-09T16:32:32.216Z,21.20
2023-01-09T16:33:32.210Z,21.19
2023-01-09T16:34:32.200Z,21.18
2023-01-09T16:35:32.184Z,21.17
2023-01-09T16:36:32.207Z,21.18
2023-01-09T16:37:32.192Z,21.18
2023-01-09T16:38:32.165Z,21.15
2023-01-09T16:39:32.148Z,21.16
2023-01-09T16:40:32.299Z,21.16
2023-01-09T16:41:32.138Z,21.17
2023-01-09T16:42:32.124Z,21.17
2023-01-09T16:43:32.113Z,21.17
2023-01-09T16:44:32.101Z,21.18
2023-01-09T16:45:32.220Z,21.18
2023-01-09T16:46:32.085Z,21.18
2023-01-09T16:47:32.079Z,21.17
2023-01-09T16:48:32.070Z,21.18
2023-01-09T16:49:32.054Z,21.17
2023-01-09T16:50:32.062Z,21.16
2023-01-09T16:51:32.047Z,21.17
2023-01-09T16:52:32.039Z,21.16
2023-01-09T16:53:32.078Z,21.17
2023-01-09T16:54:32.010Z,21.16
2023-01-09T16:55:32.001Z,21.16
2023-01-09T16:56:31.993Z,21.14
2023-01-09T16:57:31.985Z,21.14
2023-01-09T16:58:31.977Z,21.14
2023-01-09T16:59:31.973Z,21.14
2023-01-09T17:00:31.962Z,21.14
2023-01-09T17:01:31.978Z,21.14
2023-01-09T17:02:32.110Z,21.15
2023-01-09T17:03:31.928Z,21.14
2023-01-09T17:04:31.918Z,21.14
2023-01-09T17:05:31.911Z,21.14
2023-01-09T17:06:31.905Z,21.13
2023-01-09T17:07:31.890Z,21.13
2023-01-09T17:08:31.884Z,21.12
2023-01-09T17:09:31.895Z,21.13
2023-01-09T17:10:31.865Z,21.13
2023-01-09T17:11:32.208Z,21.13
2023-01-09T17:12:31.843Z,21.12
2023-01-09T17:13:31.830Z,21.11
2023-01-09T17:14:31.826Z,21.11
2023-01-09T17:15:32.564Z,21.10
2023-01-09T17:16:31.856Z,21.11
2023-01-09T17:17:31.799Z,21.09
2023-01-09T17:18:31.788Z,21.09
2023-01-09T17:19:31.782Z,21.09
2023-01-09T17:20:31.767Z,21.08
2023-01-09T17:21:31.766Z,21.09
2023-01-09T17:22:31.751Z,21.08
2023-01-09T17:23:31.748Z,21.07
2023-01-09T17:24:31.755Z,21.07
2023-01-09T17:25:31.750Z,21.07
2023-01-09T17:26:31.714Z,21.05
2023-01-09T17:27:31.713Z,21.04
2023-01-09T17:28:31.697Z,21.05
2023-01-09T17:29:31.681Z,21.05
2023-01-09T17:30:31.679Z,21.04
2023-01-09T17:31:31.828Z,21.04
2023-01-09T17:32:31.678Z,21.04
2023-01-09T17:33:31.701Z,21.04
2023-01-09T17:34:31.650Z,21.04
2023-01-09T17:35:31.630Z,21.03
2023-01-09T17:36:31.729Z,21.04
2023-01-09T17:37:31.613Z,21.03
2023-01-09T17:38:31.602Z,21.03
2023-01-09T17:39:31.617Z,21.04
2023-01-09T17:40:31.597Z,21.03
2023-01-09T17:41:31.614Z,21.02
2023-01-09T17:42:31.575Z,21.02
2023-01-09T17:43:31.560Z,21.01
2023-01-09T17:44:31.557Z,21.01
2023-01-09T17:45:31.614Z,21.00
2023-01-09T17:46:31.533Z,21.00
2023-01-09T17:47:31.519Z,21.01
2023-01-09T17:48:31.516Z,21.00
2023-01-09T17:49:31.517Z,21.01
2023-01-09T17:50:31.499Z,21.01
2023-01-09T17:51:31.480Z,21.00
2023-01-09T17:52:31.500Z,20.99
2023-01-09T17:53:31.470Z,20.98
2023-01-09T17:54:31.452Z,20.98
2023-01-09T17:55:31.446Z,20.98
2023-01-09T17:56:31.440Z,20.99
2023-01-09T17:57:31.446Z,20.99
2023-01-09T17:58:31.419Z,20.98
2023-01-09T17:59:31.403Z,20.99
2023-01-09T18:00:31.397Z,20.99
2023-01-09T18:01:31.432Z,20.98
2023-01-09T18:02:31.492Z,20.98
2023-01-09T18:03:31.372Z,20.97
2023-01-09T18:04:31.363Z,20.96
2023-01-09T18:05:31.354Z,20.96
2023-01-09T18:06:31.344Z,20.97
2023-01-09T18:07:31.335Z,20.97
2023-01-09T18:08:31.340Z,20.97
2023-01-09T18:09:31.320Z,20.97
2023-01-09T18:10:31.308Z,20.97
2023-01-09T18:11:31.312Z,20.97
2023-01-09T18:12:31.291Z,20.96
2023-01-09T18:13:31.306Z,20.97
2023-01-09T18:14:31.269Z,20.96
2023-01-09T18:15:31.266Z,20.97
2023-01-09T18:16:31.292Z,20.97
2023-01-09T18:17:31.243Z,20.97
2023-01-09T18:18:31.232Z,20.96
2023-01-09T18:19:31.253Z,20.97
2023-01-09T18:20:31.228Z,20.96
2023-01-09T18:21:31.223Z,20.96
2023-01-09T18:22:31.195Z,20.95
2023-01-09T18:23:31.186Z,20.95
2023-01-09T18:24:31.183Z,20.95
2023-01-09T18:25:31.165Z,20.96
2023-01-09T18:26:31.156Z,20.95
2023-01-09T18:27:31.153Z,20.95
2023-01-09T18:28:31.137Z,20.95
2023-01-09T18:29:31.157Z,20.95
2023-01-09T18:30:31.124Z,20.95
2023-01-09T18:31:31.133Z,20.95
2023-01-09T18:32:31.101Z,20.95
2023-01-09T18:33:31.098Z,20.94
2023-01-09T18:34:31.084Z,20.94
2023-01-09T18:35:31.108Z,20.92
2023-01-09T18:36:31.077Z,20.92
2023-01-09T18:37:31.054Z,20.93
2023-01-09T18:38:31.046Z,20.93
2023-01-09T18:39:31.039Z,20.93
2023-01-09T18:40:31.038Z,20.94
2023-01-09T18:41:31.080Z,20.94
2023-01-09T18:42:31.012Z,20.93
2023-01-09T18:43:31.000Z,20.93
2023-01-09T18:44:30.992Z,20.94
2023-01-09T18:45:31.092Z,20.93
2023-01-09T18:46:30.971Z,20.92
2023-01-09T18:47:30.969Z,20.92
2023-01-09T18:48:30.955Z,20.92
2023-01-09T18:49:30.960Z,20.92
2023-01-09T18:50:30.935Z,20.91
2023-01-09T18:51:30.928Z,20.90
2023-01-09T18:52:30.917Z,20.90
2023-01-09T18:53:30.910Z,20.90
2023-01-09T18:54:30.900Z,20.91
2023-01-09T18:55:30.895Z,20.90
2023-01-09T18:56:30.876Z,20.90
2023-01-09T18:57:30.870Z,20.90
2023-01-09T18:58:30.862Z,20.91
2023-01-09T18:59:30.867Z,20.91
2023-01-09T19:00:30.850Z,20.91
2023-01-09T19:01:30.989Z,20.90
2023-01-09T19:02:30.825Z,20.90
2023-01-09T19:03:30.913Z,20.90
2023-01-09T19:04:30.804Z,20.90
2023-01-09T19:05:30.803Z,20.90
2023-01-09T19:06:30.788Z,20.90
2023-01-09T19:07:30.777Z,20.91
2023-01-09T19:08:30.771Z,20.90
2023-01-09T19:09:30.763Z,20.90
2023-01-09T19:10:30.762Z,20.89
2023-01-09T19:11:30.741Z,20.89
2023-01-09T19:12:30.760Z,20.89
2023-01-09T19:13:30.723Z,20.89
2023-01-09T19:14:30.739Z,20.90
2023-01-09T19:15:30.708Z,20.89
2023-01-09T19:16:30.802Z,20.89
2023-01-09T19:17:30.715Z,20.89
2023-01-09T19:18:30.687Z,20.90
2023-01-09T19:19:30.671Z,20.88
2023-01-09T19:20:30.665Z,20.88
2023-01-09T19:21:30.651Z,20.88
2023-01-09T19:22:30.643Z,20.89
2023-01-09T19:23:30.631Z,20.88
2023-01-09T19:24:30.621Z,20.89
2023-01-09T19:25:30.607Z,20.89
2023-01-09T19:26:30.601Z,20.90
2023-01-09T19:27:30.597Z,20.90
2023-01-09T19:28:30.585Z,20.89
2023-01-09T19:29:30.574Z,20.90
2023-01-09T19:30:30.604Z,20.90
2023-01-09T19:31:30.609Z,20.88
2023-01-09T19:32:30.556Z,20.89
2023-01-09T19:33:30.561Z,20.87
2023-01-09T19:34:30.529Z,20.87
2023-01-09T19:35:30.518Z,20.87
2023-01-09T19:36:30.516Z,20.87
2023-01-09T19:37:30.534Z,20.86
2023-01-09T19:38:30.508Z,20.85
2023-01-09T19:39:30.498Z,20.85
2023-01-09T19:40:30.470Z,20.85
2023-01-09T19:41:30.463Z,20.86
2023-01-09T19:42:30.456Z,20.85
2023-01-09T19:43:30.448Z,20.85
2023-01-09T19:44:30.434Z,20.84
2023-01-09T19:45:30.500Z,20.83
2023-01-09T19:46:30.438Z,20.83
2023-01-09T19:47:30.412Z,20.83
2023-01-09T19:48:30.403Z,20.85
2023-01-09T19:49:30.415Z,20.85
2023-01-09T19:50:30.380Z,20.85
2023-01-09T19:51:30.374Z,20.86
2023-01-09T19:52:30.365Z,20.87
2023-01-09T19:53:30.354Z,20.87
2023-01-09T19:54:30.352Z,20.86
2023-01-09T20:20:30.118Z,20.84
2023-01-09T20:21:30.155Z,20.84
2023-01-09T20:22:30.116Z,20.83
2023-01-09T20:23:30.081Z,20.83
2023-01-09T20:24:30.092Z,20.85
2023-01-09T20:25:30.062Z,20.83
2023-01-09T20:26:30.075Z,20.83
2023-01-09T20:27:30.043Z,20.83
2023-01-09T20:28:30.037Z,20.82
2023-01-09T20:29:30.035Z,20.82
2023-01-09T20:30:30.024Z,20.82
2023-01-09T20:31:30.055Z,20.82
2023-01-09T20:32:30.045Z,20.81
2023-01-09T20:33:29.998Z,20.82
2023-01-09T20:34:29.984Z,20.82
2023-01-09T20:35:29.973Z,20.82
2023-01-09T20:36:30.017Z,20.81
2023-01-09T20:37:29.982Z,20.80
2023-01-09T20:38:29.956Z,20.80
2023-01-09T20:39:29.942Z,20.81
2023-01-09T20:40:29.930Z,20.81
2023-01-09T20:41:29.918Z,20.81
2023-01-09T20:42:29.915Z,20.81
2023-01-09T20:43:29.904Z,20.81
2023-01-09T20:44:29.895Z,20.82
2023-01-09T20:45:29.932Z,20.81
2023-01-09T20:46:29.876Z,20.80
2023-01-09T20:47:29.873Z,20.81
2023-01-09T20:48:29.860Z,20.82
2023-01-09T20:49:29.851Z,20.81
2023-01-09T20:50:29.861Z,20.81
2023-01-09T20:51:29.831Z,20.81
2023-01-09T20:52:29.826Z,20.80
2023-01-09T20:53:29.842Z,20.80
2023-01-09T20:54:29.838Z,20.81
2023-01-09T20:55:29.806Z,20.80
2023-01-09T20:56:29.787Z,20.80
2023-01-09T20:57:29.782Z,20.80
2023-01-09T20:58:29.769Z,20.79
2023-01-09T20:59:29.764Z,20.79
2023-01-09T21:00:29.759Z,20.80
2023-01-09T21:01:29.744Z,20.80
2023-01-09T21:02:29.739Z,20.81
2023-01-09T21:03:29.725Z,20.81
2023-01-09T21:04:29.765Z,20.82
2023-01-09T21:05:29.706Z,20.82
2023-01-09T21:06:30.567Z,20.81
2023-01-09T21:07:29.688Z,20.80
2023-01-09T21:08:29.679Z,20.81
2023-01-09T21:09:29.699Z,20.80
2023-01-09T21:10:29.662Z,20.79
2023-01-09T21:11:29.649Z,20.79
2023-01-09T21:12:29.639Z,20.78
2023-01-09T21:13:29.635Z,20.79
2023-01-09T21:14:29.622Z,20.79
2023-01-09T21:15:29.615Z,20.79
2023-01-09T21:16:29.718Z,20.78
2023-01-09T21:17:29.599Z,20.76
2023-01-09T21:18:29.592Z,20.77
2023-01-09T21:19:29.579Z,20.77
2023-01-09T21:20:29.572Z,20.77
2023-01-09T21:21:29.563Z,20.78
2023-01-09T21:22:29.549Z,20.77
2023-01-09T21:23:29.542Z,20.76
2023-01-09T21:24:29.533Z,20.75
2023-01-09T21:25:29.547Z,20.75
2023-01-09T21:26:29.534Z,20.76
2023-01-09T21:27:29.503Z,20.75
2023-01-09T21:28:29.495Z,20.75
2023-01-09T21:29:29.486Z,20.75
2023-01-09T21:30:29.479Z,20.76
2023-01-09T21:31:29.509Z,20.76
2023-01-09T21:32:29.457Z,20.77
2023-01-09T21:33:29.453Z,20.78
2023-01-09T21:34:29.475Z,20.79
2023-01-09T21:35:29.428Z,20.78
2023-01-09T21:36:29.425Z,20.77
2023-01-09T21:37:29.415Z,20.77
2023-01-09T21:38:29.401Z,20.77
2023-01-09T21:39:29.395Z,20.76
2023-01-09T21:40:29.388Z,20.78
2023-01-09T21:41:29.401Z,20.78
2023-01-09T21:42:29.369Z,20.78
2023-01-09T21:43:29.356Z,20.79
2023-01-09T21:44:29.350Z,20.79
2023-01-09T21:45:29.403Z,20.78
2023-01-09T21:46:29.329Z,20.78
2023-01-09T21:47:29.324Z,20.77
2023-01-09T21:48:29.313Z,20.76
2023-01-09T21:49:29.301Z,20.77
2023-01-09T21:50:29.296Z,20.75
2023-01-09T21:51:29.289Z,20.75
2023-01-09T21:52:29.281Z,20.74
2023-01-09T21:53:29.264Z,20.73
2023-01-09T21:54:29.259Z,20.72
2023-01-09T21:55:29.248Z,20.72
2023-01-09T21:56:29.239Z,20.71
2023-01-09T21:57:29.255Z,20.73
2023-01-09T21:58:29.218Z,20.72
2023-01-09T21:59:29.212Z,20.73
2023-01-09T22:00:29.203Z,20.74
2023-01-09T22:01:29.192Z,20.75
2023-01-09T22:02:29.182Z,20.75
2023-01-09T22:03:29.173Z,20.75
2023-01-09T22:04:29.284Z,20.74
2023-01-09T22:05:29.164Z,20.74
2023-01-09T22:06:29.144Z,20.74
2023-01-09T22:07:29.134Z,20.74
2023-01-09T22:08:29.125Z,20.73
2023-01-09T22:09:29.117Z,20.74
2023-01-09T22:10:29.110Z,20.73
2023-01-09T22:11:29.181Z,20.73
2023-01-09T22:12:29.090Z,20.73
2023-01-09T22:13:29.129Z,20.74
2023-01-09T22:14:29.074Z,20.74
2023-01-09T22:15:29.061Z,20.74
2023-01-09T22:16:29.154Z,20.75
2023-01-09T22:17:29.061Z,20.74
2023-01-09T22:18:29.043Z,20.75
2023-01-09T22:19:29.029Z,20.75
2023-01-09T22:20:29.020Z,20.75
2023-01-09T22:21:29.009Z,20.75
2023-01-09T22:22:28.998Z,20.75
2023-01-09T22:23:29.001Z,20.75
2023-01-09T22:24:28.982Z,20.74
2023-01-09T22:25:28.982Z,20.74
2023-01-09T22:26:28.967Z,20.73
2023-01-09T22:27:28.956Z,20.73
2023-01-09T22:28:28.948Z,20.73
2023-01-09T22:29:28.964Z,20.73
2023-01-09T22:30:28.928Z,20.73
2023-01-09T22:31:28.930Z,20.72
2023-01-09T22:32:28.908Z,20.74
2023-01-09T22:33:28.921Z,20.74
2023-01-09T22:34:28.893Z,20.73
2023-01-09T22:35:28.885Z,20.73
2023-01-09T22:36:28.878Z,20.72
2023-01-09T22:37:28.867Z,20.74
2023-01-09T22:38:28.857Z,20.74
2023-01-09T22:39:28.846Z,20.73
2023-01-09T22:40:28.835Z,20.72
2023-01-09T22:41:28.823Z,20.72
2023-01-09T22:42:28.818Z,20.72
2023-01-09T22:43:28.808Z,20.72
2023-01-09T22:44:28.803Z,20.72
2023-01-09T22:45:28.879Z,20.73
2023-01-09T22:46:28.781Z,20.73
2023-01-09T22:47:28.779Z,20.74
2023-01-09T22:48:28.760Z,20.73
2023-01-09T22:49:33.528Z,20.72
2023-01-09T22:50:28.756Z,20.72
